createdAt,value
2023-05-11T00:01:39.716Z,3.20
2023-05-11T00:04:06.765Z,3.30
2023-05-11T00:06:33.635Z,3.40
2023-05-11T00:09:00.880Z,3.60
2023-05-11T00:11:27.783Z,3.40
2023-05-11T00:13:54.737Z,2.70
2023-05-11T00:16:21.929Z,3.00
2023-05-11T00:18:49.334Z,3.20
2023-05-11T00:21:16.289Z,3.50
2023-05-11T00:23:43.437Z,3.20
2023-05-11T00:26:10.330Z,3.00
2023-05-11T00:28:37.718Z,3.00
2023-05-11T00:31:04.891Z,2.80
2023-05-11T00:33:31.768Z,3.50
2023-05-11T00:35:58.502Z,3.30
2023-05-11T00:38:25.613Z,3.10
2023-05-11T00:40:52.892Z,3.10
2023-05-11T00:43:19.800Z,3.10
2023-05-11T00:45:48.583Z,3.00
2023-05-11T00:48:15.521Z,3.00
2023-05-11T00:50:42.494Z,3.30
2023-05-11T00:53:09.928Z,3.30
2023-05-11T00:55:37.053Z,3.30
2023-05-11T00:58:05.680Z,2.90
2023-05-11T01:00:32.899Z,3.20
2023-05-11T01:03:01.250Z,3.00
2023-05-11T01:05:36.322Z,2.80
2023-05-11T01:08:13.542Z,3.00
2023-05-11T01:10:48.308Z,3.40
2023-05-11T01:13:24.435Z,3.00
2023-05-11T01:15:54.099Z,3.10
2023-05-11T01:18:31.658Z,3.10
2023-05-11T01:21:04.238Z,3.00
2023-05-11T01:24:10.309Z,3.20
2023-05-11T01:26:57.454Z,3.20
2023-05-11T01:29:43.597Z,3.10
2023-05-11T01:32:16.635Z,3.20
2023-05-11T01:34:44.536Z,2.70
2023-05-11T01:37:16.356Z,3.70
2023-05-11T01:39:49.986Z,3.10
2023-05-11T01:42:19.706Z,2.60
2023-05-11T01:44:48.362Z,3.00
2023-05-11T01:47:17.339Z,2.70
2023-05-11T01:49:47.563Z,2.90
2023-05-11T01:52:16.167Z,3.00
2023-05-11T01:54:45.414Z,3.30
2023-05-11T01:57:15.216Z,2.60
2023-05-11T01:59:42.433Z,2.90
2023-05-11T02:02:11.855Z,3.30
2023-05-11T02:04:41.445Z,2.80
2023-05-11T02:07:12.199Z,2.80
2023-05-11T02:09:40.471Z,3.10
2023-05-11T02:12:09.433Z,2.90
2023-05-11T02:14:39.359Z,2.70
2023-05-11T02:17:07.526Z,3.10
2023-05-11T02:19:35.242Z,2.50
2023-05-11T02:22:03.285Z,2.70
2023-05-11T02:24:31.388Z,2.90
2023-05-11T02:26:59.205Z,2.90
2023-05-11T02:29:26.498Z,2.90
2023-05-11T02:32:03.839Z,2.90
2023-05-11T02:34:39.975Z,3.30
2023-05-11T02:37:11.977Z,2.80
2023-05-11T02:39:40.080Z,3.10
2023-05-11T02:42:13.758Z,3.00
2023-05-11T02:44:43.412Z,3.00
2023-05-11T02:47:14.056Z,2.50
2023-05-11T02:49:42.190Z,2.90
2023-05-11T02:52:11.505Z,3.20
2023-05-11T02:54:43.902Z,2.90
2023-05-11T02:57:11.214Z,2.90
2023-05-11T02:59:38.614Z,2.80
2023-05-11T03:02:06.059Z,2.80
2023-05-11T03:04:33.036Z,2.80
2023-05-11T03:07:00.211Z,2.80
2023-05-11T03:09:27.474Z,2.70
2023-05-11T03:11:54.947Z,2.80
2023-05-11T03:14:22.755Z,3.10
2023-05-11T03:16:51.267Z,3.00
2023-05-11T03:19:19.335Z,3.50
2023-05-11T03:21:47.740Z,2.90
2023-05-11T03:24:15.460Z,3.00
2023-05-11T03:26:44.902Z,3.40
2023-05-11T03:29:13.290Z,3.10
2023-05-11T03:31:40.880Z,2.80
2023-05-11T03:34:08.159Z,2.80
2023-05-11T03:36:39.613Z,2.80
2023-05-11T03:39:16.001Z,3.10
2023-05-11T03:41:45.816Z,3.00
2023-05-11T03:44:15.296Z,2.80
2023-05-11T03:46:45.926Z,3.00
2023-05-11T03:49:15.044Z,3.50
2023-05-11T03:51:42.950Z,3.10
2023-05-11T03:54:11.191Z,3.20
2023-05-11T03:56:41.228Z,3.20
2023-05-11T03:59:08.740Z,3.90
2023-05-11T04:01:36.424Z,3.40
2023-05-11T04:04:03.664Z,3.70
2023-05-11T04:06:31.523Z,3.90
2023-05-11T04:09:14.922Z,3.70
2023-05-11T04:11:42.280Z,3.90
2023-05-11T04:14:09.108Z,3.50
2023-05-11T04:16:36.628Z,3.40
2023-05-11T04:19:03.519Z,3.50
2023-05-11T04:21:30.733Z,3.70
2023-05-11T04:23:57.956Z,3.50
2023-05-11T04:26:24.902Z,3.80
2023-05-11T04:28:52.377Z,3.60
2023-05-11T04:31:21.052Z,4.00
2023-05-11T04:33:48.513Z,3.30
2023-05-11T04:36:16.268Z,3.50
2023-05-11T04:38:44.046Z,3.40
2023-05-11T04:41:11.489Z,3.80
2023-05-11T04:43:39.868Z,4.10
2023-05-11T04:46:08.862Z,3.90
2023-05-11T04:48:36.000Z,3.60
2023-05-11T04:51:07.090Z,3.20
2023-05-11T04:53:39.437Z,4.00
2023-05-11T04:56:07.036Z,3.50
2023-05-11T04:58:36.325Z,3.60
2023-05-11T05:01:03.527Z,3.30
2023-05-11T05:03:30.906Z,3.90
2023-05-11T05:05:57.849Z,3.60
2023-05-11T05:08:25.207Z,3.90
2023-05-11T05:10:52.470Z,4.10
2023-05-11T05:13:19.326Z,3.30
2023-05-11T05:15:46.774Z,3.50
2023-05-11T05:18:13.718Z,3.80
2023-05-11T05:20:41.694Z,3.30
2023-05-11T05:23:09.453Z,3.00
2023-05-11T05:25:36.481Z,3.00
2023-05-11T05:28:03.536Z,2.90
2023-05-11T05:30:30.872Z,2.80
2023-05-11T05:32:57.752Z,2.70
2023-05-11T05:35:25.500Z,2.90
2023-05-11T05:37:53.564Z,2.60
2023-05-11T05:40:20.970Z,2.80
2023-05-11T05:42:51.635Z,2.80
2023-05-11T05:45:21.785Z,2.50
2023-05-11T05:47:51.871Z,2.70
2023-05-11T05:50:19.641Z,2.60
2023-05-11T05:52:47.013Z,2.40
2023-05-11T05:55:14.275Z,2.80
2023-05-11T05:57:42.246Z,3.00
2023-05-11T06:00:12.777Z,2.50
2023-05-11T06:02:42.616Z,2.40
2023-05-11T06:05:17.230Z,2.40
2023-05-11T06:07:49.292Z,2.70
2023-05-11T06:10:22.257Z,2.60
2023-05-11T06:12:49.337Z,2.60
2023-05-11T06:15:17.389Z,2.50
2023-05-11T06:17:47.578Z,2.20
2023-05-11T06:20:15.373Z,2.40
2023-05-11T06:22:42.408Z,2.40
2023-05-11T06:25:11.163Z,2.50
2023-05-11T06:27:38.794Z,2.40
2023-05-11T06:30:06.897Z,2.30
2023-05-11T06:32:35.745Z,3.00
2023-05-11T06:35:03.076Z,2.20
2023-05-11T06:37:32.994Z,2.20
2023-05-11T06:40:00.862Z,2.50
2023-05-11T06:42:27.912Z,2.10
2023-05-11T06:45:05.193Z,2.30
2023-05-11T06:47:33.698Z,2.10
2023-05-11T06:50:01.140Z,2.00
2023-05-11T06:52:28.492Z,2.60
2023-05-11T06:54:56.374Z,2.10
2023-05-11T06:57:23.212Z,2.30
2023-05-11T06:59:50.966Z,2.10
2023-05-11T07:02:18.081Z,2.20
2023-05-11T07:04:45.182Z,2.00
2023-05-11T07:07:12.581Z,2.10
2023-05-11T07:09:41.376Z,1.90
2023-05-11T07:12:10.274Z,2.20
2023-05-11T07:14:37.451Z,2.00
2023-05-11T07:17:04.740Z,2.00
2023-05-11T07:19:32.098Z,1.90
2023-05-11T07:21:59.229Z,2.30
2023-05-11T07:24:26.468Z,1.70
2023-05-11T07:26:55.684Z,1.80
2023-05-11T07:29:22.806Z,2.00
2023-05-11T07:31:49.828Z,2.10
2023-05-11T07:34:16.805Z,1.80
2023-05-11T07:36:43.957Z,2.10
2023-05-11T07:39:11.474Z,1.70
2023-05-11T07:41:38.365Z,2.10
2023-05-11T07:44:06.125Z,1.60
2023-05-11T07:46:33.201Z,2.20
2023-05-11T07:49:14.601Z,1.60
2023-05-11T07:51:46.206Z,1.70
2023-05-11T07:54:13.164Z,2.00
2023-05-11T07:56:40.135Z,2.40
2023-05-11T07:59:07.671Z,2.00
2023-05-11T08:01:34.807Z,1.90
2023-05-11T08:04:01.752Z,2.20
2023-05-11T08:06:29.417Z,1.80
2023-05-11T08:08:56.309Z,1.80
2023-05-11T08:11:24.244Z,2.00
2023-05-11T08:13:52.044Z,1.80
2023-05-11T08:16:19.103Z,2.20
2023-05-11T08:18:46.129Z,1.80
2023-05-11T08:21:13.055Z,1.60
2023-05-11T08:23:39.989Z,1.90
2023-05-11T08:26:07.753Z,1.80
2023-05-11T08:28:34.999Z,2.00
2023-05-11T08:31:02.204Z,2.00
2023-05-11T08:36:01.064Z,1.80
2023-05-11T08:38:28.017Z,2.00
2023-05-11T08:40:55.668Z,2.20
2023-05-11T08:43:24.056Z,1.80
2023-05-11T08:45:57.081Z,1.90
2023-05-11T08:48:25.028Z,1.90
2023-05-11T08:50:52.244Z,2.10
2023-05-11T08:53:19.256Z,1.80
2023-05-11T08:55:47.894Z,1.70
2023-05-11T08:58:19.556Z,1.90
2023-05-11T09:00:47.584Z,1.80
2023-05-11T09:03:14.620Z,2.10
2023-05-11T09:05:43.556Z,1.70
2023-05-11T09:08:12.136Z,1.90
2023-05-11T09:10:40.208Z,1.70
2023-05-11T09:13:07.256Z,2.30
2023-05-11T09:15:37.250Z,1.90
2023-05-11T09:18:05.137Z,1.70
2023-05-11T09:20:33.653Z,2.20
2023-05-11T09:23:01.351Z,1.50
2023-05-11T09:25:32.429Z,1.90
2023-05-11T09:28:01.097Z,2.30
2023-05-11T09:30:28.483Z,1.90
2023-05-11T09:32:57.049Z,1.90
2023-05-11T09:35:26.171Z,1.70
2023-05-11T09:38:10.404Z,2.10
2023-05-11T09:40:38.700Z,1.90
2023-05-11T09:43:16.597Z,2.20
2023-05-11T09:45:45.586Z,1.80
2023-05-11T09:48:25.649Z,1.80
2023-05-11T09:50:59.412Z,1.80
2023-05-11T09:53:37.404Z,2.20
2023-05-11T09:56:04.984Z,1.60
2023-05-11T09:58:48.214Z,1.90
2023-05-11T10:01:16.468Z,1.60
2023-05-11T10:03:58.169Z,1.60
2023-05-11T10:06:44.166Z,1.60
2023-05-11T10:09:14.617Z,2.00
2023-05-11T10:11:47.302Z,1.70
2023-05-11T10:14:16.244Z,1.70
2023-05-11T10:16:44.913Z,2.00
2023-05-11T10:19:14.141Z,2.10
2023-05-11T10:21:42.737Z,2.00
2023-05-11T10:24:13.909Z,2.10
2023-05-11T10:26:41.581Z,1.90
2023-05-11T10:29:10.662Z,1.60
2023-05-11T10:31:38.405Z,2.10
2023-05-11T10:34:07.009Z,2.00
2023-05-11T10:36:35.090Z,2.20
2023-05-11T10:39:02.024Z,1.70
2023-05-11T10:41:40.859Z,1.90
2023-05-11T10:44:26.120Z,2.30
2023-05-11T10:47:07.915Z,1.70
2023-05-11T10:50:04.658Z,1.80
2023-05-11T10:52:49.670Z,2.10
2023-05-11T10:55:28.742Z,1.90
2023-05-11T10:58:08.429Z,1.80
2023-05-11T11:01:06.644Z,2.00
2023-05-11T11:03:33.836Z,1.80
2023-05-11T11:06:01.659Z,1.80
2023-05-11T11:08:29.833Z,1.90
2023-05-11T11:10:56.752Z,1.70
2023-05-11T11:13:25.223Z,2.10
2023-05-11T11:16:14.510Z,2.10
2023-05-11T11:18:43.714Z,2.10
2023-05-11T11:21:15.637Z,2.10
2023-05-11T11:23:49.253Z,1.70
2023-05-11T11:26:18.970Z,2.00
2023-05-11T11:29:14.622Z,2.20
2023-05-11T11:31:42.624Z,1.90
2023-05-11T11:34:39.085Z,1.90
2023-05-11T11:37:10.154Z,1.60
2023-05-11T11:40:13.124Z,1.90
2023-05-11T11:42:42.841Z,1.80
2023-05-11T11:45:31.194Z,1.70
2023-05-11T11:48:21.564Z,1.80
2023-05-11T11:50:50.142Z,2.20
2023-05-11T11:54:09.757Z,2.20
2023-05-11T11:56:48.760Z,2.10
2023-05-11T11:59:16.471Z,2.50
2023-05-11T12:01:45.644Z,3.40
2023-05-11T12:04:40.924Z,2.70
2023-05-11T12:07:13.416Z,2.20
2023-05-11T12:09:42.039Z,1.90
2023-05-11T12:12:12.103Z,1.90
2023-05-11T12:14:39.708Z,2.30
2023-05-11T12:17:18.347Z,1.90
2023-05-11T12:19:46.694Z,2.50
2023-05-11T12:22:16.481Z,2.30
2023-05-11T12:24:44.134Z,1.90
2023-05-11T12:27:11.688Z,2.10
2023-05-11T12:29:39.390Z,2.10
2023-05-11T12:32:12.439Z,2.30
2023-05-11T12:34:39.532Z,2.20
2023-05-11T12:37:08.910Z,2.40
2023-05-11T12:39:37.284Z,2.00
2023-05-11T12:42:04.452Z,1.90
2023-05-11T12:44:31.991Z,2.00
2023-05-11T12:46:59.104Z,2.10
2023-05-11T12:49:27.759Z,1.90
2023-05-11T12:52:08.019Z,1.90
2023-05-11T12:54:38.346Z,2.40
2023-05-11T12:57:06.131Z,1.90
2023-05-11T12:59:38.566Z,2.10
2023-05-11T13:02:18.098Z,2.10
2023-05-11T13:04:48.038Z,2.10
2023-05-11T13:07:16.822Z,1.90
2023-05-11T13:09:43.834Z,2.30
2023-05-11T13:12:21.253Z,2.50
2023-05-11T13:14:50.534Z,2.30
2023-05-11T13:17:31.232Z,2.20
2023-05-11T13:19:58.828Z,2.40
2023-05-11T13:22:25.999Z,2.20
2023-05-11T13:25:04.234Z,2.40
2023-05-11T13:27:31.017Z,2.10
2023-05-11T13:29:57.894Z,2.30
2023-05-11T13:32:25.081Z,2.40
2023-05-11T13:34:52.426Z,2.50
2023-05-11T13:37:19.380Z,2.50
2023-05-11T13:39:46.630Z,2.50
2023-05-11T13:42:13.653Z,2.00
2023-05-11T13:44:40.598Z,2.00
2023-05-11T13:47:08.764Z,2.20
2023-05-11T13:49:35.821Z,2.30
2023-05-11T13:52:02.833Z,2.40
2023-05-11T13:54:31.886Z,1.80
2023-05-11T13:56:59.620Z,2.00
2023-05-11T13:59:26.676Z,2.00
2023-05-11T14:01:54.781Z,2.00
2023-05-11T14:04:22.012Z,2.10
2023-05-11T14:06:49.352Z,2.00
2023-05-11T14:09:16.637Z,2.20
2023-05-11T14:11:44.066Z,2.10
2023-05-11T14:14:11.126Z,2.10
2023-05-11T14:16:38.560Z,1.90
2023-05-11T14:19:05.713Z,2.20
2023-05-11T14:21:33.385Z,2.20
2023-05-11T14:24:11.378Z,2.20
2023-05-11T14:26:39.972Z,2.20
2023-05-11T14:29:07.097Z,2.60
2023-05-11T14:31:35.362Z,2.40
2023-05-11T14:34:02.851Z,2.40
2023-05-11T14:36:30.259Z,2.10
2023-05-11T14:38:57.173Z,2.10
2023-05-11T14:41:24.200Z,2.40
2023-05-11T14:43:51.795Z,2.20
2023-05-11T14:46:18.962Z,2.50
2023-05-11T14:48:45.898Z,2.30
2023-05-11T14:51:13.022Z,2.10
2023-05-11T14:53:39.909Z,2.20
2023-05-11T14:56:08.132Z,2.60
2023-05-11T14:58:35.376Z,2.10
2023-05-11T15:01:02.426Z,2.00
2023-05-11T15:03:31.377Z,2.20
2023-05-11T15:05:58.774Z,1.90
2023-05-11T15:08:30.131Z,2.20
2023-05-11T15:10:57.922Z,2.30
2023-05-11T15:13:25.238Z,1.90
2023-05-11T15:15:52.303Z,2.50
2023-05-11T15:18:20.018Z,2.40
2023-05-11T15:20:47.697Z,1.90
2023-05-11T15:23:17.049Z,2.10
2023-05-11T15:25:44.640Z,2.20
2023-05-11T15:28:12.336Z,2.00
2023-05-11T15:30:41.394Z,1.90
2023-05-11T15:33:08.735Z,1.90
2023-05-11T15:35:36.883Z,2.00
2023-05-11T15:38:03.963Z,2.10
2023-05-11T15:40:30.843Z,2.30
2023-05-11T15:42:58.729Z,2.20
2023-05-11T15:45:26.383Z,2.10
2023-05-11T15:47:54.196Z,2.10
2023-05-11T15:50:22.050Z,2.30
2023-05-11T15:52:49.272Z,2.10
2023-05-11T15:55:16.147Z,2.00
2023-05-11T15:57:43.036Z,2.10
2023-05-11T16:00:15.091Z,2.20
2023-05-11T16:02:42.858Z,2.20
2023-05-11T16:05:11.356Z,2.50
2023-05-11T16:07:38.748Z,2.00
2023-05-11T16:10:06.749Z,2.00
2023-05-11T16:12:33.611Z,2.00
2023-05-11T16:15:00.549Z,2.00
2023-05-11T16:17:27.439Z,2.30
2023-05-11T16:19:59.582Z,1.90
2023-05-11T16:22:26.643Z,2.10
2023-05-11T16:24:53.435Z,2.10
2023-05-11T16:27:20.446Z,2.40
2023-05-11T16:29:47.278Z,2.00
2023-05-11T16:32:14.395Z,2.00
2023-05-11T16:34:41.565Z,2.10
2023-05-11T16:37:08.742Z,2.40
2023-05-11T16:39:35.877Z,2.30
2023-05-11T16:42:03.245Z,2.00
2023-05-11T16:44:30.795Z,2.10
2023-05-11T16:46:58.550Z,2.30
2023-05-11T16:49:25.864Z,2.40
2023-05-11T16:51:53.081Z,2.50
2023-05-11T16:54:20.103Z,2.10
2023-05-11T16:56:47.511Z,2.20
2023-05-11T16:59:14.467Z,1.80
2023-05-11T17:01:42.051Z,2.00
2023-05-11T17:04:09.046Z,2.20
2023-05-11T17:06:36.108Z,2.10
2023-05-11T17:09:02.960Z,2.00
2023-05-11T17:11:29.800Z,2.00
2023-05-11T17:13:56.736Z,1.90
2023-05-11T17:16:24.121Z,2.50
2023-05-11T17:18:51.242Z,1.80
2023-05-11T17:21:18.382Z,2.00
2023-05-11T17:23:46.003Z,1.80
2023-05-11T17:26:13.808Z,2.10
2023-05-11T17:28:41.655Z,1.90
2023-05-11T17:31:13.172Z,1.70
2023-05-11T17:33:41.012Z,2.10
2023-05-11T17:36:09.492Z,1.90
2023-05-11T17:38:39.521Z,2.00
2023-05-11T17:41:06.817Z,2.00
2023-05-11T17:43:34.160Z,1.90
2023-05-11T17:46:03.826Z,2.40
2023-05-11T17:48:30.938Z,1.90
2023-05-11T17:50:58.057Z,2.60
2023-05-11T17:53:25.188Z,2.30
2023-05-11T17:55:53.164Z,2.00
2023-05-11T17:58:20.204Z,2.10
2023-05-11T18:00:49.129Z,2.50
2023-05-11T18:03:16.840Z,2.20
2023-05-11T18:05:48.473Z,2.30
2023-05-11T18:08:16.095Z,2.10
2023-05-11T18:10:43.008Z,2.00
2023-05-11T18:13:10.146Z,2.00
2023-05-11T18:15:37.827Z,2.30
2023-05-11T18:18:04.828Z,2.30
2023-05-11T18:20:31.866Z,2.30
2023-05-11T18:22:58.894Z,2.00
2023-05-11T18:25:31.883Z,2.30
2023-05-11T18:27:59.972Z,2.40
2023-05-11T18:30:27.098Z,2.20
2023-05-11T18:32:57.501Z,2.60
2023-05-11T18:35:27.151Z,2.50
2023-05-11T18:37:56.988Z,2.30
2023-05-11T18:40:24.003Z,2.40
2023-05-11T18:42:53.945Z,2.60
2023-05-11T18:45:41.600Z,2.00
2023-05-11T18:48:09.578Z,2.40
2023-05-11T18:50:36.500Z,2.10
2023-05-11T18:53:03.386Z,2.30
2023-05-11T18:55:35.427Z,2.50
2023-05-11T18:58:08.233Z,2.60
2023-05-11T19:00:39.408Z,2.60
2023-05-11T19:03:09.764Z,2.40
2023-05-11T19:05:37.122Z,2.30
2023-05-11T19:08:07.162Z,2.40
2023-05-11T19:10:34.226Z,2.50
2023-05-11T19:13:01.345Z,3.00
2023-05-11T19:15:28.283Z,2.50
2023-05-11T19:17:55.126Z,3.10
2023-05-11T19:20:22.796Z,2.70
2023-05-11T19:22:49.929Z,3.00
2023-05-11T19:25:17.816Z,3.40
2023-05-11T19:27:45.482Z,3.60
2023-05-11T19:30:13.645Z,3.30
2023-05-11T19:32:42.343Z,3.30
2023-05-11T19:35:11.826Z,3.20
2023-05-11T19:37:38.728Z,3.20
2023-05-11T19:40:38.080Z,3.40
2023-05-11T19:42:56.471Z,3.40
2023-05-11T19:45:23.486Z,3.30
2023-05-11T19:47:50.447Z,3.30
2023-05-11T19:50:20.426Z,3.20
2023-05-11T19:52:51.178Z,3.30
2023-05-11T19:55:18.362Z,3.10
2023-05-11T19:57:45.267Z,3.60
2023-05-11T20:00:14.103Z,3.50
2023-05-11T20:02:41.511Z,3.70
2023-05-11T20:05:10.124Z,3.00
2023-05-11T20:07:37.288Z,3.00
2023-05-11T20:10:04.949Z,2.80
2023-05-11T20:12:34.214Z,3.10
2023-05-11T20:15:01.162Z,2.90
2023-05-11T20:17:28.349Z,3.20
2023-05-11T20:19:55.440Z,3.00
2023-05-11T20:22:22.996Z,3.30
2023-05-11T20:24:53.439Z,3.70
2023-05-11T20:27:23.479Z,3.50
2023-05-11T20:29:50.652Z,3.30
2023-05-11T20:32:18.599Z,3.30
2023-05-11T20:34:54.213Z,3.70
2023-05-11T20:37:41.445Z,3.50
2023-05-11T20:40:10.759Z,3.70
2023-05-11T20:42:39.516Z,3.60
2023-05-11T20:45:08.024Z,3.50
2023-05-11T20:47:35.395Z,3.90
2023-05-11T20:50:02.412Z,3.50
2023-05-11T20:52:30.282Z,3.70
2023-05-11T20:54:57.644Z,3.80
2023-05-11T20:57:24.781Z,4.10
2023-05-11T21:02:21.906Z,4.30
2023-05-11T21:04:49.817Z,4.20
2023-05-11T21:07:16.764Z,4.00
2023-05-11T21:09:44.598Z,4.10
2023-05-11T21:12:11.997Z,4.60
2023-05-11T21:14:39.182Z,4.30
2023-05-11T21:17:06.480Z,3.90
2023-05-11T21:19:33.672Z,4.00
2023-05-11T21:22:00.694Z,4.10
2023-05-11T21:24:28.007Z,4.00
2023-05-11T21:26:55.968Z,3.90
2023-05-11T21:29:23.004Z,4.10
2023-05-11T21:31:50.312Z,3.90
2023-05-11T21:34:17.462Z,4.20
2023-05-11T21:36:47.172Z,4.30
2023-05-11T21:39:14.425Z,4.10
2023-05-11T21:41:41.493Z,4.10
2023-05-11T21:44:08.872Z,3.90
2023-05-11T21:46:36.440Z,3.90
2023-05-11T21:49:03.450Z,4.30
2023-05-11T21:51:30.382Z,3.90
2023-05-11T21:53:57.541Z,4.60
2023-05-11T21:56:25.197Z,4.30
2023-05-11T21:58:52.052Z,4.20
2023-05-11T22:01:19.990Z,4.20
2023-05-11T22:03:47.042Z,4.40
2023-05-11T22:06:14.171Z,4.10
2023-05-11T22:08:41.259Z,3.90
2023-05-11T22:11:08.221Z,4.30
2023-05-11T22:13:35.356Z,4.30
2023-05-11T22:16:03.491Z,4.20
2023-05-11T22:18:30.630Z,3.90
2023-05-11T22:20:57.731Z,4.10
2023-05-11T22:23:24.743Z,4.00
2023-05-11T22:25:51.791Z,4.00
2023-05-11T22:28:30.029Z,4.30
2023-05-11T22:30:59.044Z,4.50
2023-05-11T22:33:36.419Z,4.10
2023-05-11T22:36:03.876Z,4.00
2023-05-11T22:38:32.804Z,4.20
2023-05-11T22:41:00.220Z,4.20
2023-05-11T22:43:27.480Z,4.00
2023-05-11T22:45:56.830Z,3.80
2023-05-11T22:48:35.614Z,3.90
2023-05-11T22:51:06.340Z,4.10
2023-05-11T22:53:36.077Z,3.90
2023-05-11T22:56:07.595Z,3.90
2023-05-11T22:58:36.996Z,4.00
2023-05-11T23:01:24.341Z,3.90
2023-05-11T23:03:51.827Z,3.90
2023-05-11T23:06:30.074Z,3.90
2023-05-11T23:08:57.008Z,3.50
2023-05-11T23:11:24.284Z,3.50
2023-05-11T23:13:51.165Z,4.40
2023-05-11T23:16:19.611Z,4.00
2023-05-11T23:18:46.568Z,4.00
2023-05-11T23:21:16.281Z,4.30
2023-05-11T23:23:43.735Z,3.50
2023-05-11T23:26:10.680Z,4.10
2023-05-11T23:28:37.673Z,3.70
2023-05-11T23:31:05.456Z,4.10
2023-05-11T23:33:32.942Z,4.30
2023-05-11T23:36:00.142Z,3.90
2023-05-11T23:38:36.358Z,3.70
2023-05-11T23:41:03.314Z,4.10
2023-05-11T23:43:50.653Z,3.80
2023-05-11T23:46:20.775Z,4.20
2023-05-11T23:48:48.321Z,4.40
2023-05-11T23:51:16.620Z,4.00
2023-05-11T23:53:43.836Z,3.70
2023-05-11T23:56:11.347Z,4.20
2023-05-11T23:58:45.648Z,3.70
